sensor_id;sensor_type;location;lat;lon;timestamp;P1;durP1;ratioP1;P2;durP2;ratioP2
18445;SDS011;9352;50.888;4.466;2022-09-24T00:02:25;46.47;;;24.23;;
18445;SDS011;9352;50.888;4.466;2022-09-24T00:04:53;36.95;;;22.27;;
18445;SDS011;9352;50.888;4.466;2022-09-24T00:07:20;32.42;;;20.67;;
18445;SDS011;9352;50.888;4.466;2022-09-24T00:09:47;28.58;;;17.27;;
18445;SDS011;9352;50.888;4.466;2022-09-24T00:12:14;25.02;;;16.02;;
18445;SDS011;9352;50.888;4.466;2022-09-24T00:14:42;22.25;;;15.30;;
18445;SDS011;9352;50.888;4.466;2022-09-24T00:17:08;23.65;;;13.77;;
18445;SDS011;9352;50.888;4.466;2022-09-24T00:19:35;25.92;;;14.75;;
18445;SDS011;9352;50.888;4.466;2022-09-24T00:22:04;29.10;;;15.43;;
18445;SDS011;9352;50.888;4.466;2022-09-24T00:24:30;22.70;;;12.93;;
18445;SDS011;9352;50.888;4.466;2022-09-24T00:27:14;21.73;;;12.43;;
18445;SDS011;9352;50.888;4.466;2022-09-24T00:29:41;18.65;;;11.88;;
18445;SDS011;9352;50.888;4.466;2022-09-24T00:32:09;17.58;;;11.63;;
18445;SDS011;9352;50.888;4.466;2022-09-24T00:34:37;19.73;;;11.48;;
18445;SDS011;9352;50.888;4.466;2022-09-24T00:37:05;15.70;;;10.40;;
18445;SDS011;9352;50.888;4.466;2022-09-24T00:39:33;15.65;;;10.50;;
18445;SDS011;9352;50.888;4.466;2022-09-24T00:42:00;17.52;;;10.60;;
18445;SDS011;9352;50.888;4.466;2022-09-24T00:44:45;16.13;;;10.85;;
18445;SDS011;9352;50.888;4.466;2022-09-24T00:47:21;17.35;;;11.13;;
18445;SDS011;9352;50.888;4.466;2022-09-24T00:49:55;16.88;;;10.68;;
18445;SDS011;9352;50.888;4.466;2022-09-24T00:52:27;22.85;;;12.10;;
18445;SDS011;9352;50.888;4.466;2022-09-24T00:54:54;18.65;;;12.13;;
18445;SDS011;9352;50.888;4.466;2022-09-24T00:57:22;20.42;;;12.18;;
18445;SDS011;9352;50.888;4.466;2022-09-24T00:59:49;23.00;;;13.85;;
18445;SDS011;9352;50.888;4.466;2022-09-24T01:02:18;22.00;;;14.18;;
18445;SDS011;9352;50.888;4.466;2022-09-24T01:04:46;26.60;;;14.45;;
18445;SDS011;9352;50.888;4.466;2022-09-24T01:07:13;26.58;;;14.98;;
18445;SDS011;9352;50.888;4.466;2022-09-24T01:09:41;26.58;;;15.27;;
18445;SDS011;9352;50.888;4.466;2022-09-24T01:12:10;23.35;;;14.48;;
18445;SDS011;9352;50.888;4.466;2022-09-24T01:14:49;24.85;;;14.63;;
18445;SDS011;9352;50.888;4.466;2022-09-24T01:17:24;29.33;;;15.02;;
18445;SDS011;9352;50.888;4.466;2022-09-24T01:20:05;22.17;;;14.98;;
18445;SDS011;9352;50.888;4.466;2022-09-24T01:23:09;24.52;;;14.77;;
18445;SDS011;9352;50.888;4.466;2022-09-24T01:25:54;25.95;;;15.50;;
18445;SDS011;9352;50.888;4.466;2022-09-24T01:28:34;29.70;;;15.85;;
18445;SDS011;9352;50.888;4.466;2022-09-24T01:31:15;34.83;;;17.05;;
18445;SDS011;9352;50.888;4.466;2022-09-24T01:33:44;33.67;;;17.40;;
18445;SDS011;9352;50.888;4.466;2022-09-24T01:36:17;32.58;;;17.35;;
18445;SDS011;9352;50.888;4.466;2022-09-24T01:38:46;33.10;;;19.10;;
18445;SDS011;9352;50.888;4.466;2022-09-24T01:41:15;33.22;;;19.15;;
18445;SDS011;9352;50.888;4.466;2022-09-24T01:43:43;36.00;;;18.42;;
18445;SDS011;9352;50.888;4.466;2022-09-24T01:46:10;36.13;;;19.42;;
18445;SDS011;9352;50.888;4.466;2022-09-24T01:48:40;41.83;;;19.63;;
18445;SDS011;9352;50.888;4.466;2022-09-24T01:51:08;39.50;;;19.38;;
18445;SDS011;9352;50.888;4.466;2022-09-24T01:53:40;39.70;;;19.95;;
18445;SDS011;9352;50.888;4.466;2022-09-24T01:56:13;35.70;;;18.88;;
18445;SDS011;9352;50.888;4.466;2022-09-24T01:58:44;37.80;;;19.55;;
18445;SDS011;9352;50.888;4.466;2022-09-24T02:01:16;38.50;;;19.90;;
18445;SDS011;9352;50.888;4.466;2022-09-24T02:03:50;39.10;;;20.48;;
18445;SDS011;9352;50.888;4.466;2022-09-24T02:06:22;42.17;;;20.92;;
18445;SDS011;9352;50.888;4.466;2022-09-24T02:08:54;42.22;;;20.38;;
18445;SDS011;9352;50.888;4.466;2022-09-24T02:11:22;39.67;;;20.40;;
18445;SDS011;9352;50.888;4.466;2022-09-24T02:13:53;41.53;;;21.20;;
18445;SDS011;9352;50.888;4.466;2022-09-24T02:16:25;44.25;;;20.92;;
18445;SDS011;9352;50.888;4.466;2022-09-24T02:18:57;40.38;;;21.35;;
18445;SDS011;9352;50.888;4.466;2022-09-24T02:21:29;40.38;;;20.58;;
18445;SDS011;9352;50.888;4.466;2022-09-24T02:23:59;43.65;;;22.25;;
18445;SDS011;9352;50.888;4.466;2022-09-24T02:26:30;36.45;;;19.65;;
18445;SDS011;9352;50.888;4.466;2022-09-24T02:28:57;40.25;;;21.02;;
18445;SDS011;9352;50.888;4.466;2022-09-24T02:31:26;44.42;;;22.02;;
18445;SDS011;9352;50.888;4.466;2022-09-24T02:33:57;44.38;;;22.02;;
18445;SDS011;9352;50.888;4.466;2022-09-24T02:36:44;39.60;;;20.70;;
18445;SDS011;9352;50.888;4.466;2022-09-24T02:39:11;47.28;;;23.80;;
18445;SDS011;9352;50.888;4.466;2022-09-24T02:41:38;45.15;;;23.00;;
18445;SDS011;9352;50.888;4.466;2022-09-24T02:44:06;43.60;;;22.25;;
18445;SDS011;9352;50.888;4.466;2022-09-24T02:46:33;45.22;;;22.73;;
18445;SDS011;9352;50.888;4.466;2022-09-24T02:49:01;46.45;;;23.38;;
18445;SDS011;9352;50.888;4.466;2022-09-24T02:51:28;45.53;;;23.45;;
18445;SDS011;9352;50.888;4.466;2022-09-24T02:53:55;53.42;;;24.05;;
18445;SDS011;9352;50.888;4.466;2022-09-24T02:56:22;46.92;;;22.17;;
18445;SDS011;9352;50.888;4.466;2022-09-24T02:58:49;45.92;;;22.40;;
18445;SDS011;9352;50.888;4.466;2022-09-24T03:01:16;47.75;;;21.02;;
18445;SDS011;9352;50.888;4.466;2022-09-24T03:03:44;39.58;;;19.77;;
18445;SDS011;9352;50.888;4.466;2022-09-24T03:06:12;39.08;;;19.67;;
18445;SDS011;9352;50.888;4.466;2022-09-24T03:08:40;39.60;;;19.65;;
18445;SDS011;9352;50.888;4.466;2022-09-24T03:11:07;40.75;;;19.92;;
18445;SDS011;9352;50.888;4.466;2022-09-24T03:13:34;36.30;;;18.73;;
18445;SDS011;9352;50.888;4.466;2022-09-24T03:16:01;33.72;;;18.25;;
18445;SDS011;9352;50.888;4.466;2022-09-24T03:18:28;34.95;;;18.27;;
18445;SDS011;9352;50.888;4.466;2022-09-24T03:20:55;36.38;;;18.42;;
18445;SDS011;9352;50.888;4.466;2022-09-24T03:23:24;36.28;;;18.80;;
18445;SDS011;9352;50.888;4.466;2022-09-24T03:25:51;35.97;;;18.42;;
18445;SDS011;9352;50.888;4.466;2022-09-24T03:28:19;36.70;;;18.67;;
18445;SDS011;9352;50.888;4.466;2022-09-24T03:30:46;46.17;;;19.60;;
18445;SDS011;9352;50.888;4.466;2022-09-24T03:33:25;36.80;;;17.95;;
18445;SDS011;9352;50.888;4.466;2022-09-24T03:35:55;39.65;;;19.70;;
18445;SDS011;9352;50.888;4.466;2022-09-24T03:38:24;37.97;;;19.40;;
18445;SDS011;9352;50.888;4.466;2022-09-24T03:40:51;44.30;;;21.20;;
18445;SDS011;9352;50.888;4.466;2022-09-24T03:43:18;45.83;;;21.45;;
18445;SDS011;9352;50.888;4.466;2022-09-24T03:45:45;49.05;;;22.77;;
18445;SDS011;9352;50.888;4.466;2022-09-24T03:48:13;48.60;;;21.60;;
18445;SDS011;9352;50.888;4.466;2022-09-24T03:50:40;47.30;;;21.65;;
18445;SDS011;9352;50.888;4.466;2022-09-24T03:53:07;47.75;;;21.77;;
18445;SDS011;9352;50.888;4.466;2022-09-24T03:55:40;46.85;;;22.27;;
18445;SDS011;9352;50.888;4.466;2022-09-24T03:58:08;51.80;;;22.83;;
18445;SDS011;9352;50.888;4.466;2022-09-24T04:00:35;46.03;;;22.60;;
18445;SDS011;9352;50.888;4.466;2022-09-24T04:03:02;50.92;;;22.80;;
18445;SDS011;9352;50.888;4.466;2022-09-24T04:05:30;48.97;;;21.58;;
18445;SDS011;9352;50.888;4.466;2022-09-24T04:07:59;49.83;;;22.85;;
18445;SDS011;9352;50.888;4.466;2022-09-24T04:10:26;55.10;;;22.85;;
18445;SDS011;9352;50.888;4.466;2022-09-24T04:12:54;47.25;;;23.08;;
18445;SDS011;9352;50.888;4.466;2022-09-24T04:15:22;49.20;;;21.92;;
18445;SDS011;9352;50.888;4.466;2022-09-24T04:17:49;55.13;;;23.70;;
18445;SDS011;9352;50.888;4.466;2022-09-24T04:20:16;49.55;;;23.58;;
18445;SDS011;9352;50.888;4.466;2022-09-24T04:22:46;54.63;;;23.73;;
18445;SDS011;9352;50.888;4.466;2022-09-24T04:25:13;54.17;;;23.63;;
18445;SDS011;9352;50.888;4.466;2022-09-24T04:27:40;54.90;;;24.42;;
18445;SDS011;9352;50.888;4.466;2022-09-24T04:30:10;58.65;;;24.70;;
18445;SDS011;9352;50.888;4.466;2022-09-24T04:32:38;56.95;;;23.85;;
18445;SDS011;9352;50.888;4.466;2022-09-24T04:35:05;52.33;;;23.92;;
18445;SDS011;9352;50.888;4.466;2022-09-24T04:37:32;59.60;;;23.80;;
18445;SDS011;9352;50.888;4.466;2022-09-24T04:39:59;51.95;;;24.42;;
18445;SDS011;9352;50.888;4.466;2022-09-24T04:42:27;56.17;;;24.60;;
18445;SDS011;9352;50.888;4.466;2022-09-24T04:44:54;50.53;;;23.75;;
18445;SDS011;9352;50.888;4.466;2022-09-24T04:47:22;56.47;;;24.48;;
18445;SDS011;9352;50.888;4.466;2022-09-24T04:49:50;60.40;;;24.27;;
18445;SDS011;9352;50.888;4.466;2022-09-24T04:52:17;54.20;;;24.15;;
18445;SDS011;9352;50.888;4.466;2022-09-24T04:54:53;61.92;;;26.55;;
18445;SDS011;9352;50.888;4.466;2022-09-24T04:57:22;51.95;;;24.15;;
18445;SDS011;9352;50.888;4.466;2022-09-24T04:59:49;57.72;;;24.92;;
18445;SDS011;9352;50.888;4.466;2022-09-24T05:02:16;61.63;;;24.85;;
18445;SDS011;9352;50.888;4.466;2022-09-24T05:04:45;57.03;;;24.02;;
18445;SDS011;9352;50.888;4.466;2022-09-24T05:07:12;60.53;;;24.90;;
18445;SDS011;9352;50.888;4.466;2022-09-24T05:09:39;61.97;;;25.02;;
18445;SDS011;9352;50.888;4.466;2022-09-24T05:12:05;59.17;;;25.40;;
18445;SDS011;9352;50.888;4.466;2022-09-24T05:14:33;58.08;;;25.80;;
18445;SDS011;9352;50.888;4.466;2022-09-24T05:16:59;59.70;;;25.15;;
18445;SDS011;9352;50.888;4.466;2022-09-24T05:19:26;61.95;;;25.15;;
18445;SDS011;9352;50.888;4.466;2022-09-24T05:21:55;67.78;;;25.90;;
18445;SDS011;9352;50.888;4.466;2022-09-24T05:24:21;56.30;;;24.33;;
18445;SDS011;9352;50.888;4.466;2022-09-24T05:26:48;59.50;;;25.48;;
18445;SDS011;9352;50.888;4.466;2022-09-24T05:29:33;58.10;;;25.15;;
18445;SDS011;9352;50.888;4.466;2022-09-24T05:32:01;69.10;;;25.90;;
18445;SDS011;9352;50.888;4.466;2022-09-24T05:34:29;59.60;;;25.23;;
18445;SDS011;9352;50.888;4.466;2022-09-24T05:36:58;60.30;;;25.70;;
18445;SDS011;9352;50.888;4.466;2022-09-24T05:39:25;62.72;;;25.20;;
18445;SDS011;9352;50.888;4.466;2022-09-24T05:41:52;61.45;;;25.05;;
18445;SDS011;9352;50.888;4.466;2022-09-24T05:44:19;59.47;;;24.77;;
18445;SDS011;9352;50.888;4.466;2022-09-24T05:46:46;61.25;;;25.88;;
18445;SDS011;9352;50.888;4.466;2022-09-24T05:49:13;61.53;;;25.65;;
18445;SDS011;9352;50.888;4.466;2022-09-24T05:51:42;68.72;;;26.00;;
18445;SDS011;9352;50.888;4.466;2022-09-24T05:54:11;67.75;;;25.45;;
18445;SDS011;9352;50.888;4.466;2022-09-24T05:56:37;64.40;;;26.08;;
18445;SDS011;9352;50.888;4.466;2022-09-24T05:59:04;65.50;;;25.48;;
18445;SDS011;9352;50.888;4.466;2022-09-24T06:01:31;73.30;;;26.23;;
18445;SDS011;9352;50.888;4.466;2022-09-24T06:03:58;68.50;;;25.83;;
18445;SDS011;9352;50.888;4.466;2022-09-24T06:06:25;71.97;;;26.55;;
18445;SDS011;9352;50.888;4.466;2022-09-24T06:08:53;68.72;;;26.95;;
18445;SDS011;9352;50.888;4.466;2022-09-24T06:11:24;65.28;;;26.33;;
18445;SDS011;9352;50.888;4.466;2022-09-24T06:13:52;71.53;;;25.98;;
18445;SDS011;9352;50.888;4.466;2022-09-24T06:16:19;69.00;;;26.35;;
18445;SDS011;9352;50.888;4.466;2022-09-24T06:18:45;66.10;;;26.10;;
18445;SDS011;9352;50.888;4.466;2022-09-24T06:21:13;64.60;;;26.15;;
18445;SDS011;9352;50.888;4.466;2022-09-24T06:23:42;67.15;;;26.42;;
18445;SDS011;9352;50.888;4.466;2022-09-24T06:26:11;56.65;;;24.52;;
18445;SDS011;9352;50.888;4.466;2022-09-24T06:28:40;63.35;;;25.05;;
18445;SDS011;9352;50.888;4.466;2022-09-24T06:31:07;56.08;;;24.02;;
18445;SDS011;9352;50.888;4.466;2022-09-24T06:33:36;54.58;;;23.90;;
18445;SDS011;9352;50.888;4.466;2022-09-24T06:36:04;66.30;;;24.95;;
18445;SDS011;9352;50.888;4.466;2022-09-24T06:38:32;58.03;;;23.30;;
18445;SDS011;9352;50.888;4.466;2022-09-24T06:40:59;59.90;;;23.60;;
18445;SDS011;9352;50.888;4.466;2022-09-24T06:43:27;60.42;;;24.00;;
18445;SDS011;9352;50.888;4.466;2022-09-24T06:45:56;60.97;;;24.20;;
18445;SDS011;9352;50.888;4.466;2022-09-24T06:48:24;51.78;;;23.17;;
18445;SDS011;9352;50.888;4.466;2022-09-24T06:50:51;54.00;;;23.42;;
18445;SDS011;9352;50.888;4.466;2022-09-24T06:53:18;53.28;;;22.92;;
18445;SDS011;9352;50.888;4.466;2022-09-24T06:55:46;51.53;;;23.08;;
18445;SDS011;9352;50.888;4.466;2022-09-24T06:58:14;53.47;;;22.88;;
18445;SDS011;9352;50.888;4.466;2022-09-24T07:00:48;57.30;;;24.02;;
18445;SDS011;9352;50.888;4.466;2022-09-24T07:03:19;58.47;;;23.50;;
18445;SDS011;9352;50.888;4.466;2022-09-24T07:05:46;55.83;;;23.65;;
18445;SDS011;9352;50.888;4.466;2022-09-24T07:08:14;56.38;;;24.20;;
18445;SDS011;9352;50.888;4.466;2022-09-24T07:10:41;54.70;;;23.88;;
18445;SDS011;9352;50.888;4.466;2022-09-24T07:13:10;58.83;;;23.70;;
18445;SDS011;9352;50.888;4.466;2022-09-24T07:15:37;54.70;;;22.83;;
18445;SDS011;9352;50.888;4.466;2022-09-24T07:18:04;54.70;;;23.10;;
18445;SDS011;9352;50.888;4.466;2022-09-24T07:20:33;59.33;;;23.75;;
18445;SDS011;9352;50.888;4.466;2022-09-24T07:23:01;62.85;;;24.35;;
18445;SDS011;9352;50.888;4.466;2022-09-24T07:25:28;54.08;;;23.15;;
18445;SDS011;9352;50.888;4.466;2022-09-24T07:27:58;59.40;;;24.23;;
18445;SDS011;9352;50.888;4.466;2022-09-24T07:30:26;61.38;;;25.13;;
18445;SDS011;9352;50.888;4.466;2022-09-24T07:32:53;50.17;;;22.33;;
18445;SDS011;9352;50.888;4.466;2022-09-24T07:35:20;52.95;;;22.88;;
18445;SDS011;9352;50.888;4.466;2022-09-24T07:37:54;57.75;;;23.20;;
18445;SDS011;9352;50.888;4.466;2022-09-24T07:40:22;53.17;;;23.33;;
18445;SDS011;9352;50.888;4.466;2022-09-24T07:42:50;51.30;;;22.98;;
18445;SDS011;9352;50.888;4.466;2022-09-24T07:45:18;52.58;;;22.92;;
18445;SDS011;9352;50.888;4.466;2022-09-24T07:47:45;48.90;;;23.40;;
18445;SDS011;9352;50.888;4.466;2022-09-24T07:50:12;57.92;;;24.55;;
18445;SDS011;9352;50.888;4.466;2022-09-24T07:52:39;54.13;;;24.50;;
18445;SDS011;9352;50.888;4.466;2022-09-24T07:55:08;47.22;;;23.80;;
18445;SDS011;9352;50.888;4.466;2022-09-24T07:57:35;48.17;;;23.30;;
18445;SDS011;9352;50.888;4.466;2022-09-24T08:00:03;46.70;;;21.90;;
18445;SDS011;9352;50.888;4.466;2022-09-24T08:02:31;49.40;;;20.60;;
18445;SDS011;9352;50.888;4.466;2022-09-24T08:05:00;41.63;;;20.02;;
18445;SDS011;9352;50.888;4.466;2022-09-24T08:07:27;42.83;;;21.67;;
18445;SDS011;9352;50.888;4.466;2022-09-24T08:09:53;42.45;;;21.30;;
18445;SDS011;9352;50.888;4.466;2022-09-24T08:12:23;47.15;;;22.00;;
18445;SDS011;9352;50.888;4.466;2022-09-24T08:14:51;44.20;;;20.27;;
18445;SDS011;9352;50.888;4.466;2022-09-24T08:17:18;39.42;;;19.60;;
18445;SDS011;9352;50.888;4.466;2022-09-24T08:19:45;38.40;;;19.75;;
18445;SDS011;9352;50.888;4.466;2022-09-24T08:22:12;39.28;;;19.27;;
18445;SDS011;9352;50.888;4.466;2022-09-24T08:24:39;45.17;;;21.15;;
18445;SDS011;9352;50.888;4.466;2022-09-24T08:27:07;40.03;;;20.48;;
18445;SDS011;9352;50.888;4.466;2022-09-24T08:29:36;39.55;;;21.00;;
18445;SDS011;9352;50.888;4.466;2022-09-24T08:32:04;39.35;;;20.48;;
18445;SDS011;9352;50.888;4.466;2022-09-24T08:34:34;37.88;;;19.90;;
18445;SDS011;9352;50.888;4.466;2022-09-24T08:37:04;44.63;;;21.23;;
18445;SDS011;9352;50.888;4.466;2022-09-24T08:39:34;40.45;;;21.77;;
18445;SDS011;9352;50.888;4.466;2022-09-24T08:42:02;42.65;;;21.00;;
18445;SDS011;9352;50.888;4.466;2022-09-24T08:44:30;41.78;;;21.88;;
18445;SDS011;9352;50.888;4.466;2022-09-24T08:47:27;29.27;;;16.75;;
18445;SDS011;9352;50.888;4.466;2022-09-24T08:50:01;36.13;;;18.85;;
18445;SDS011;9352;50.888;4.466;2022-09-24T08:52:39;34.22;;;18.60;;
18445;SDS011;9352;50.888;4.466;2022-09-24T08:55:30;36.47;;;18.55;;
18445;SDS011;9352;50.888;4.466;2022-09-24T08:58:04;42.10;;;20.85;;
18445;SDS011;9352;50.888;4.466;2022-09-24T09:00:50;35.22;;;18.55;;
18445;SDS011;9352;50.888;4.466;2022-09-24T09:03:23;33.63;;;19.17;;
18445;SDS011;9352;50.888;4.466;2022-09-24T09:05:58;34.58;;;19.25;;
18445;SDS011;9352;50.888;4.466;2022-09-24T09:08:30;30.55;;;18.50;;
18445;SDS011;9352;50.888;4.466;2022-09-24T09:11:03;36.47;;;18.77;;
18445;SDS011;9352;50.888;4.466;2022-09-24T09:13:34;32.50;;;17.67;;
18445;SDS011;9352;50.888;4.466;2022-09-24T09:16:15;33.17;;;17.60;;
18445;SDS011;9352;50.888;4.466;2022-09-24T09:18:48;35.70;;;17.85;;
18445;SDS011;9352;50.888;4.466;2022-09-24T09:21:22;32.88;;;17.20;;
18445;SDS011;9352;50.888;4.466;2022-09-24T09:23:53;29.58;;;17.63;;
18445;SDS011;9352;50.888;4.466;2022-09-24T09:26:23;30.70;;;17.42;;
18445;SDS011;9352;50.888;4.466;2022-09-24T09:28:55;36.28;;;17.88;;
18445;SDS011;9352;50.888;4.466;2022-09-24T09:31:29;33.45;;;18.27;;
18445;SDS011;9352;50.888;4.466;2022-09-24T09:34:15;38.90;;;18.83;;
18445;SDS011;9352;50.888;4.466;2022-09-24T09:37:04;36.15;;;18.38;;
18445;SDS011;9352;50.888;4.466;2022-09-24T09:39:42;33.72;;;17.92;;
18445;SDS011;9352;50.888;4.466;2022-09-24T09:45:02;31.88;;;18.80;;
18445;SDS011;9352;50.888;4.466;2022-09-24T09:47:45;37.95;;;18.45;;
18445;SDS011;9352;50.888;4.466;2022-09-24T09:50:17;36.15;;;18.27;;
18445;SDS011;9352;50.888;4.466;2022-09-24T09:52:54;37.28;;;18.83;;
18445;SDS011;9352;50.888;4.466;2022-09-24T09:55:22;35.22;;;18.20;;
18445;SDS011;9352;50.888;4.466;2022-09-24T09:57:50;35.03;;;18.50;;
18445;SDS011;9352;50.888;4.466;2022-09-24T10:00:25;34.90;;;19.02;;
18445;SDS011;9352;50.888;4.466;2022-09-24T10:02:59;37.45;;;19.10;;
18445;SDS011;9352;50.888;4.466;2022-09-24T10:05:27;33.72;;;17.92;;
18445;SDS011;9352;50.888;4.466;2022-09-24T10:07:55;34.33;;;18.15;;
18445;SDS011;9352;50.888;4.466;2022-09-24T10:10:23;31.20;;;17.42;;
18445;SDS011;9352;50.888;4.466;2022-09-24T10:12:52;34.03;;;18.77;;
18445;SDS011;9352;50.888;4.466;2022-09-24T10:15:20;39.78;;;18.60;;
18445;SDS011;9352;50.888;4.466;2022-09-24T10:17:49;33.67;;;17.35;;
18445;SDS011;9352;50.888;4.466;2022-09-24T10:20:21;32.13;;;17.35;;
18445;SDS011;9352;50.888;4.466;2022-09-24T10:22:52;28.85;;;16.40;;
18445;SDS011;9352;50.888;4.466;2022-09-24T10:25:23;31.63;;;17.65;;
18445;SDS011;9352;50.888;4.466;2022-09-24T10:27:53;28.42;;;16.38;;
18445;SDS011;9352;50.888;4.466;2022-09-24T10:30:52;30.40;;;16.90;;
18445;SDS011;9352;50.888;4.466;2022-09-24T10:33:20;32.05;;;16.92;;
18445;SDS011;9352;50.888;4.466;2022-09-24T10:35:49;29.75;;;17.00;;
18445;SDS011;9352;50.888;4.466;2022-09-24T10:38:27;27.98;;;15.70;;
18445;SDS011;9352;50.888;4.466;2022-09-24T10:40:56;31.98;;;16.35;;
18445;SDS011;9352;50.888;4.466;2022-09-24T10:43:23;31.92;;;17.48;;
18445;SDS011;9352;50.888;4.466;2022-09-24T10:48:41;36.55;;;17.77;;
18445;SDS011;9352;50.888;4.466;2022-09-24T10:51:18;31.20;;;17.42;;
18445;SDS011;9352;50.888;4.466;2022-09-24T10:53:56;37.00;;;17.20;;
18445;SDS011;9352;50.888;4.466;2022-09-24T10:56:38;31.40;;;17.77;;
18445;SDS011;9352;50.888;4.466;2022-09-24T10:59:15;32.78;;;17.73;;
18445;SDS011;9352;50.888;4.466;2022-09-24T11:01:56;26.88;;;16.08;;
18445;SDS011;9352;50.888;4.466;2022-09-24T11:10:32;25.00;;;14.70;;
18445;SDS011;9352;50.888;4.466;2022-09-24T11:13:22;26.85;;;14.82;;
18445;SDS011;9352;50.888;4.466;2022-09-24T11:16:10;25.98;;;13.30;;
18445;SDS011;9352;50.888;4.466;2022-09-24T11:18:50;21.55;;;13.05;;
18445;SDS011;9352;50.888;4.466;2022-09-24T11:21:26;23.80;;;13.70;;
18445;SDS011;9352;50.888;4.466;2022-09-24T11:24:26;21.95;;;13.10;;
18445;SDS011;9352;50.888;4.466;2022-09-24T11:27:22;22.80;;;12.40;;
18445;SDS011;9352;50.888;4.466;2022-09-24T11:30:11;24.25;;;13.63;;
18445;SDS011;9352;50.888;4.466;2022-09-24T11:32:43;23.50;;;13.57;;
18445;SDS011;9352;50.888;4.466;2022-09-24T11:35:28;25.25;;;13.43;;
18445;SDS011;9352;50.888;4.466;2022-09-24T11:38:08;23.55;;;14.02;;
18445;SDS011;9352;50.888;4.466;2022-09-24T11:40:50;23.50;;;14.02;;
18445;SDS011;9352;50.888;4.466;2022-09-24T11:46:21;21.10;;;13.80;;
18445;SDS011;9352;50.888;4.466;2022-09-24T11:49:07;24.77;;;13.88;;
18445;SDS011;9352;50.888;4.466;2022-09-24T11:51:49;26.60;;;14.27;;
18445;SDS011;9352;50.888;4.466;2022-09-24T11:54:22;27.83;;;14.65;;
18445;SDS011;9352;50.888;4.466;2022-09-24T11:56:54;29.67;;;14.55;;
18445;SDS011;9352;50.888;4.466;2022-09-24T11:59:31;29.27;;;13.65;;
18445;SDS011;9352;50.888;4.466;2022-09-24T12:02:04;24.48;;;13.35;;
18445;SDS011;9352;50.888;4.466;2022-09-24T12:04:41;26.17;;;14.48;;
18445;SDS011;9352;50.888;4.466;2022-09-24T12:07:16;29.65;;;14.95;;
18445;SDS011;9352;50.888;4.466;2022-09-24T12:09:49;30.55;;;14.15;;
18445;SDS011;9352;50.888;4.466;2022-09-24T12:12:23;29.08;;;14.85;;
18445;SDS011;9352;50.888;4.466;2022-09-24T12:14:53;30.83;;;15.35;;
18445;SDS011;9352;50.888;4.466;2022-09-24T12:17:26;26.83;;;14.90;;
18445;SDS011;9352;50.888;4.466;2022-09-24T12:19:59;24.40;;;14.05;;
18445;SDS011;9352;50.888;4.466;2022-09-24T12:22:30;32.92;;;15.45;;
18445;SDS011;9352;50.888;4.466;2022-09-24T12:25:00;28.45;;;14.68;;
18445;SDS011;9352;50.888;4.466;2022-09-24T12:27:30;27.52;;;14.68;;
18445;SDS011;9352;50.888;4.466;2022-09-24T12:30:02;26.23;;;15.10;;
18445;SDS011;9352;50.888;4.466;2022-09-24T12:33:00;31.17;;;15.43;;
18445;SDS011;9352;50.888;4.466;2022-09-24T12:35:35;30.98;;;15.15;;
18445;SDS011;9352;50.888;4.466;2022-09-24T12:38:21;29.10;;;15.43;;
18445;SDS011;9352;50.888;4.466;2022-09-24T12:41:06;29.88;;;15.80;;
18445;SDS011;9352;50.888;4.466;2022-09-24T12:43:43;29.60;;;16.17;;
18445;SDS011;9352;50.888;4.466;2022-09-24T12:46:15;31.70;;;16.15;;
18445;SDS011;9352;50.888;4.466;2022-09-24T12:48:44;29.23;;;15.10;;
18445;SDS011;9352;50.888;4.466;2022-09-24T12:51:13;29.42;;;15.30;;
18445;SDS011;9352;50.888;4.466;2022-09-24T12:53:53;30.38;;;15.80;;
18445;SDS011;9352;50.888;4.466;2022-09-24T12:56:23;29.70;;;15.65;;
18445;SDS011;9352;50.888;4.466;2022-09-24T12:58:55;31.50;;;16.27;;
18445;SDS011;9352;50.888;4.466;2022-09-24T13:01:26;32.63;;;16.73;;
18445;SDS011;9352;50.888;4.466;2022-09-24T13:06:54;31.73;;;16.55;;
18445;SDS011;9352;50.888;4.466;2022-09-24T13:09:28;35.53;;;17.70;;
18445;SDS011;9352;50.888;4.466;2022-09-24T13:12:00;35.83;;;18.63;;
18445;SDS011;9352;50.888;4.466;2022-09-24T13:14:30;34.30;;;17.70;;
18445;SDS011;9352;50.888;4.466;2022-09-24T13:17:02;32.33;;;17.27;;
18445;SDS011;9352;50.888;4.466;2022-09-24T13:19:33;35.55;;;18.02;;
18445;SDS011;9352;50.888;4.466;2022-09-24T13:22:02;36.78;;;17.98;;
18445;SDS011;9352;50.888;4.466;2022-09-24T13:24:31;32.47;;;18.35;;
18445;SDS011;9352;50.888;4.466;2022-09-24T13:27:20;38.97;;;19.85;;
18445;SDS011;9352;50.888;4.466;2022-09-24T13:29:59;34.60;;;18.63;;
18445;SDS011;9352;50.888;4.466;2022-09-24T13:32:28;35.25;;;20.63;;
18445;SDS011;9352;50.888;4.466;2022-09-24T13:35:01;36.40;;;19.63;;
18445;SDS011;9352;50.888;4.466;2022-09-24T13:37:34;28.52;;;18.17;;
18445;SDS011;9352;50.888;4.466;2022-09-24T13:40:12;30.58;;;18.52;;
18445;SDS011;9352;50.888;4.466;2022-09-24T13:42:44;32.75;;;17.88;;
18445;SDS011;9352;50.888;4.466;2022-09-24T13:45:17;34.35;;;18.55;;
18445;SDS011;9352;50.888;4.466;2022-09-24T13:47:48;31.10;;;16.42;;
18445;SDS011;9352;50.888;4.466;2022-09-24T13:50:19;31.77;;;17.25;;
18445;SDS011;9352;50.888;4.466;2022-09-24T13:52:49;26.80;;;16.48;;
18445;SDS011;9352;50.888;4.466;2022-09-24T13:55:20;27.60;;;16.33;;
18445;SDS011;9352;50.888;4.466;2022-09-24T13:57:51;30.27;;;16.80;;
18445;SDS011;9352;50.888;4.466;2022-09-24T14:00:20;36.00;;;17.77;;
18445;SDS011;9352;50.888;4.466;2022-09-24T14:02:51;25.50;;;15.93;;
18445;SDS011;9352;50.888;4.466;2022-09-24T14:05:24;29.13;;;17.98;;
18445;SDS011;9352;50.888;4.466;2022-09-24T14:07:54;25.38;;;17.08;;
18445;SDS011;9352;50.888;4.466;2022-09-24T14:10:23;25.05;;;16.30;;
18445;SDS011;9352;50.888;4.466;2022-09-24T14:15:54;26.17;;;16.48;;
18445;SDS011;9352;50.888;4.466;2022-09-24T14:18:23;27.27;;;16.58;;
18445;SDS011;9352;50.888;4.466;2022-09-24T14:20:52;27.88;;;17.35;;
18445;SDS011;9352;50.888;4.466;2022-09-24T14:23:22;27.10;;;17.92;;
18445;SDS011;9352;50.888;4.466;2022-09-24T14:25:52;31.27;;;19.48;;
18445;SDS011;9352;50.888;4.466;2022-09-24T14:28:19;32.63;;;20.42;;
18445;SDS011;9352;50.888;4.466;2022-09-24T14:30:48;31.27;;;18.88;;
18445;SDS011;9352;50.888;4.466;2022-09-24T14:33:20;31.98;;;21.40;;
18445;SDS011;9352;50.888;4.466;2022-09-24T14:35:51;32.33;;;20.30;;
18445;SDS011;9352;50.888;4.466;2022-09-24T14:38:20;32.83;;;20.65;;
18445;SDS011;9352;50.888;4.466;2022-09-24T14:40:53;27.70;;;18.52;;
18445;SDS011;9352;50.888;4.466;2022-09-24T14:43:24;32.90;;;19.65;;
18445;SDS011;9352;50.888;4.466;2022-09-24T14:45:59;34.63;;;21.38;;
18445;SDS011;9352;50.888;4.466;2022-09-24T14:48:31;33.97;;;22.15;;
18445;SDS011;9352;50.888;4.466;2022-09-24T14:50:59;35.38;;;20.75;;
18445;SDS011;9352;50.888;4.466;2022-09-24T14:53:27;33.15;;;20.60;;
18445;SDS011;9352;50.888;4.466;2022-09-24T14:55:57;31.58;;;19.83;;
18445;SDS011;9352;50.888;4.466;2022-09-24T14:58:25;36.45;;;20.52;;
18445;SDS011;9352;50.888;4.466;2022-09-24T15:01:01;33.63;;;21.30;;
18445;SDS011;9352;50.888;4.466;2022-09-24T15:03:33;33.53;;;21.42;;
18445;SDS011;9352;50.888;4.466;2022-09-24T15:06:05;33.72;;;19.75;;
18445;SDS011;9352;50.888;4.466;2022-09-24T15:08:41;30.88;;;19.80;;
18445;SDS011;9352;50.888;4.466;2022-09-24T15:11:13;35.60;;;21.77;;
18445;SDS011;9352;50.888;4.466;2022-09-24T15:13:43;30.10;;;17.85;;
18445;SDS011;9352;50.888;4.466;2022-09-24T15:16:17;26.23;;;17.92;;
18445;SDS011;9352;50.888;4.466;2022-09-24T15:18:54;31.17;;;19.17;;